createdAt,value
2022-08-27T07:10:14.617Z,20.99
2022-08-27T07:13:24.846Z,20.94
2022-08-27T07:16:34.735Z,20.90
2022-08-27T07:19:45.429Z,20.95
2022-08-27T07:22:58.558Z,21.05
2022-08-27T07:26:10.836Z,21.11
2022-08-27T07:29:20.402Z,21.20
2022-08-27T07:32:31.314Z,21.30
2022-08-27T07:35:41.742Z,21.32
2022-08-27T07:38:59.192Z,21.43
2022-08-27T07:42:23.263Z,21.59
2022-08-27T07:45:32.882Z,21.68
2022-08-27T07:48:42.415Z,21.96
2022-08-27T07:51:53.321Z,22.28
2022-08-27T07:55:02.916Z,22.59
2022-08-27T07:58:18.091Z,22.81
2022-08-27T08:01:30.560Z,22.80
2022-08-27T08:04:40.173Z,22.74
2022-08-27T08:07:51.959Z,22.75
2022-08-27T08:11:03.688Z,22.71
2022-08-27T08:14:14.892Z,22.52
2022-08-27T08:17:25.282Z,22.47
2022-08-27T08:20:56.555Z,22.35
2022-08-27T08:24:04.702Z,22.22
2022-08-27T08:27:14.273Z,22.21
2022-08-27T08:30:25.140Z,22.24
2022-08-27T08:33:35.729Z,22.18
2022-08-27T08:36:51.068Z,22.18
2022-08-27T08:40:05.413Z,22.30
2022-08-27T08:43:28.119Z,22.33
2022-08-27T08:46:42.791Z,22.33
2022-08-27T08:49:58.134Z,22.30
2022-08-27T08:53:13.195Z,22.29
2022-08-27T08:56:29.215Z,22.25
2022-08-27T08:59:41.136Z,22.20
2022-08-27T09:02:55.417Z,22.10
2022-08-27T09:06:09.445Z,21.87
2022-08-27T09:09:23.358Z,21.73
2022-08-27T09:12:33.484Z,21.72
2022-08-27T09:15:43.178Z,21.63
2022-08-27T09:18:55.998Z,21.66
2022-08-27T09:22:14.877Z,21.75
2022-08-27T09:25:29.270Z,21.78
2022-08-27T09:28:53.221Z,21.87
2022-08-27T09:32:08.343Z,21.89
2022-08-27T09:35:19.176Z,21.92
2022-08-27T09:38:33.972Z,22.00
2022-08-27T09:41:46.297Z,22.01
2022-08-27T09:44:55.988Z,22.05
2022-08-27T09:48:08.900Z,22.29
2022-08-27T09:51:23.768Z,22.58
2022-08-27T09:54:41.632Z,22.76
2022-08-27T09:57:51.345Z,22.97
2022-08-27T10:01:03.589Z,23.10
2022-08-27T10:04:16.850Z,23.33
2022-08-27T10:07:38.074Z,23.40
2022-08-27T10:10:55.004Z,23.42
2022-08-27T10:14:12.979Z,23.41
2022-08-27T10:17:32.297Z,23.48
2022-08-27T10:21:05.380Z,23.58
2022-08-27T10:24:24.361Z,23.83
2022-08-27T10:27:44.164Z,24.55
2022-08-27T10:31:08.210Z,25.08
2022-08-27T10:34:32.042Z,25.25
2022-08-27T10:37:52.130Z,25.14
2022-08-27T10:41:16.627Z,25.06
2022-08-27T10:44:40.385Z,24.72
2022-08-27T10:47:59.335Z,24.32
2022-08-27T10:51:16.453Z,24.15
2022-08-27T10:54:32.020Z,24.03
2022-08-27T10:58:03.766Z,23.85
2022-08-27T11:01:21.877Z,23.75
2022-08-27T11:04:36.309Z,23.80
2022-08-27T11:07:50.538Z,23.83
2022-08-27T11:11:51.467Z,23.83
2022-08-27T11:14:42.875Z,23.86
2022-08-27T11:17:58.431Z,23.92
2022-08-27T11:21:14.356Z,23.87
2022-08-27T11:24:35.123Z,23.94
2022-08-27T11:27:47.794Z,23.99
2022-08-27T11:31:04.089Z,23.91
2022-08-27T11:34:19.370Z,23.98
2022-08-27T11:37:41.557Z,24.09
2022-08-27T11:41:03.717Z,24.10
2022-08-27T11:44:15.377Z,24.21
2022-08-27T11:47:28.839Z,24.39
2022-08-27T11:50:38.395Z,24.57
2022-08-27T11:53:57.485Z,24.78
2022-08-27T11:57:15.919Z,24.84
2022-08-27T12:00:33.751Z,24.86
2022-08-27T12:03:44.825Z,24.53
2022-08-27T12:07:03.139Z,24.45
2022-08-27T12:10:25.115Z,24.49
2022-08-27T12:13:42.204Z,24.72
2022-08-27T12:16:59.188Z,24.90
2022-08-27T12:20:25.036Z,25.08
2022-08-27T12:23:46.989Z,25.55
2022-08-27T12:27:00.907Z,25.82
2022-08-27T12:30:22.155Z,25.79
2022-08-27T12:33:36.106Z,25.79
2022-08-27T12:36:49.489Z,25.74
2022-08-27T12:40:03.521Z,25.55
2022-08-27T12:43:19.028Z,25.42
2022-08-27T12:46:29.775Z,25.30
2022-08-27T12:49:46.287Z,25.43
2022-08-27T12:53:15.552Z,25.46
2022-08-27T12:56:38.050Z,25.36
2022-08-27T13:00:00.236Z,25.25
2022-08-27T13:03:23.155Z,25.18
2022-08-27T13:06:35.230Z,24.89
2022-08-27T13:09:46.109Z,24.80
2022-08-27T13:13:05.077Z,24.99
2022-08-27T13:16:15.213Z,25.40
2022-08-27T13:19:27.862Z,26.07
2022-08-27T13:22:40.644Z,26.39
2022-08-27T13:25:57.070Z,27.05
2022-08-27T13:29:09.048Z,27.78
2022-08-27T13:32:21.193Z,27.96
2022-08-27T13:35:31.682Z,28.30
2022-08-27T13:38:49.902Z,28.12
2022-08-27T13:42:03.557Z,28.21
2022-08-27T13:45:13.557Z,27.97
2022-08-27T13:48:24.329Z,27.73
2022-08-27T13:51:38.601Z,27.42
2022-08-27T13:54:51.315Z,27.07
2022-08-27T13:58:13.886Z,27.16
2022-08-27T14:01:27.877Z,27.16
2022-08-27T14:04:39.421Z,26.68
2022-08-27T14:07:52.106Z,26.18
2022-08-27T14:11:04.693Z,25.75
2022-08-27T14:14:18.752Z,25.32
2022-08-27T14:17:35.838Z,25.31
2022-08-27T14:20:45.457Z,25.32
2022-08-27T14:23:55.830Z,25.51
2022-08-27T14:27:10.601Z,25.60
2022-08-27T14:30:29.248Z,25.89
2022-08-27T14:33:40.152Z,25.96
2022-08-27T14:36:54.187Z,25.80
2022-08-27T14:40:05.674Z,25.69
2022-08-27T14:43:16.002Z,25.94
2022-08-27T14:46:30.686Z,26.08
2022-08-27T14:49:43.906Z,26.18
2022-08-27T14:52:53.455Z,26.24
2022-08-27T14:56:03.079Z,26.18
2022-08-27T14:59:12.846Z,26.21
2022-08-27T15:02:24.000Z,26.42
2022-08-27T15:05:33.546Z,26.35
2022-08-27T15:08:44.822Z,26.12
2022-08-27T15:11:56.970Z,26.23
2022-08-27T15:15:10.016Z,26.44
2022-08-27T15:18:20.900Z,26.53
2022-08-27T15:21:31.724Z,26.54
2022-08-27T15:24:43.912Z,26.47
2022-08-27T15:27:54.810Z,26.56
2022-08-27T15:31:04.450Z,26.78
2022-08-27T15:34:15.452Z,26.64
2022-08-27T15:37:25.655Z,26.63
2022-08-27T15:40:36.404Z,26.56
2022-08-27T15:43:46.158Z,26.54
2022-08-27T15:46:56.067Z,26.42
2022-08-27T15:50:08.396Z,26.53
2022-08-27T15:53:22.443Z,26.81
2022-08-27T15:56:34.586Z,26.93
2022-08-27T15:59:44.803Z,26.40
2022-08-27T16:02:54.867Z,26.27
2022-08-27T16:06:06.438Z,26.27
2022-08-27T16:09:16.065Z,26.18
2022-08-27T16:12:26.946Z,26.06
2022-08-27T16:15:40.394Z,25.76
2022-08-27T16:18:50.381Z,25.65
2022-08-27T16:22:01.120Z,25.54
2022-08-27T16:25:18.413Z,25.30
2022-08-27T16:28:28.407Z,25.02
2022-08-27T16:31:38.172Z,24.87
2022-08-27T16:34:52.564Z,24.90
2022-08-27T16:38:07.134Z,24.94
2022-08-27T16:41:20.165Z,24.91
2022-08-27T16:44:29.785Z,24.70
2022-08-27T16:48:01.417Z,24.48
2022-08-27T16:51:16.807Z,24.45
2022-08-27T16:54:28.346Z,24.53
2022-08-27T16:57:38.411Z,24.43
2022-08-27T17:00:53.413Z,24.52
2022-08-27T17:04:10.179Z,24.50
2022-08-27T17:07:25.845Z,24.46
2022-08-27T17:10:41.981Z,24.35
2022-08-27T17:13:53.166Z,24.13
2022-08-27T17:17:02.684Z,23.93
2022-08-27T17:20:12.861Z,23.68
2022-08-27T17:23:33.106Z,23.48
2022-08-27T17:26:44.083Z,23.33
2022-08-27T17:29:55.647Z,23.27
2022-08-27T17:33:05.487Z,23.26
2022-08-27T17:36:15.888Z,23.12
2022-08-27T17:39:25.390Z,23.01
2022-08-27T17:42:37.266Z,22.93
2022-08-27T17:45:47.031Z,22.78
2022-08-27T17:48:56.692Z,22.73
2022-08-27T17:52:10.579Z,22.72
2022-08-27T17:55:20.307Z,22.54
2022-08-27T17:58:31.416Z,22.45
2022-08-27T18:01:41.553Z,22.42
2022-08-27T18:04:51.791Z,22.38
2022-08-27T18:08:01.463Z,22.41
2022-08-27T18:11:12.625Z,22.37
2022-08-27T18:14:23.516Z,22.24
2022-08-27T18:17:33.129Z,22.08
2022-08-27T18:20:42.791Z,21.89
2022-08-27T18:23:52.798Z,21.80
2022-08-27T18:27:02.481Z,21.74
2022-08-27T18:30:14.481Z,21.61
2022-08-27T18:33:24.047Z,21.47
2022-08-27T18:36:33.532Z,21.39
2022-08-27T18:39:43.107Z,21.47
2022-08-27T18:42:53.190Z,21.45
2022-08-27T18:46:10.493Z,21.37
2022-08-27T18:49:22.078Z,21.26
2022-08-27T18:52:31.905Z,21.22
2022-08-27T18:55:41.550Z,21.20
2022-08-27T18:58:51.430Z,21.18
2022-08-27T19:02:02.691Z,21.18
2022-08-27T19:05:14.506Z,21.09
2022-08-27T19:08:27.381Z,21.08
2022-08-27T19:11:37.019Z,21.05
2022-08-27T19:14:48.062Z,21.02
2022-08-27T19:18:03.743Z,20.99
2022-08-27T19:21:13.648Z,21.00
2022-08-27T19:24:23.811Z,20.90
2022-08-27T19:27:33.906Z,20.86
2022-08-27T19:30:44.182Z,20.84
2022-08-27T19:33:55.456Z,20.71
2022-08-27T19:37:07.741Z,20.64
2022-08-27T19:40:18.530Z,20.69
2022-08-27T19:43:28.283Z,20.66
2022-08-27T19:46:40.455Z,20.65
2022-08-27T19:49:51.292Z,20.62
2022-08-27T19:53:01.284Z,20.65
2022-08-27T19:56:13.091Z,20.63
2022-08-27T19:59:25.801Z,20.50
2022-08-27T20:02:35.357Z,20.44
2022-08-27T20:05:48.900Z,20.35
2022-08-27T20:08:59.219Z,20.33
2022-08-27T20:12:09.246Z,20.35
2022-08-27T20:15:20.895Z,20.37
2022-08-27T20:18:34.968Z,20.35
2022-08-27T20:21:46.170Z,20.33
2022-08-27T20:24:55.834Z,20.32
2022-08-27T20:28:34.968Z,20.39
2022-08-27T20:31:36.967Z,20.36
2022-08-27T20:34:46.553Z,20.38
2022-08-27T20:37:57.432Z,20.35
2022-08-27T20:41:07.818Z,20.32
2022-08-27T20:44:17.497Z,20.34
2022-08-27T20:47:29.043Z,20.36
2022-08-27T20:50:39.050Z,20.32
2022-08-27T20:53:49.924Z,20.29
2022-08-27T20:56:59.622Z,20.34
2022-08-27T21:00:19.957Z,20.41
2022-08-27T21:03:29.886Z,20.37
2022-08-27T21:06:39.621Z,20.29
2022-08-27T21:09:56.190Z,20.31
2022-08-27T21:13:10.892Z,20.37
2022-08-27T21:16:22.031Z,20.33
2022-08-27T21:19:31.781Z,20.36
2022-08-27T21:22:42.337Z,20.42
2022-08-27T21:25:53.067Z,20.42
2022-08-27T21:29:03.014Z,20.38
2022-08-27T21:32:12.781Z,20.39
2022-08-27T21:35:22.465Z,20.38
2022-08-27T21:38:32.314Z,20.30
2022-08-27T21:41:43.032Z,20.23
2022-08-27T21:44:52.599Z,20.24
2022-08-27T21:48:04.220Z,20.25
2022-08-27T21:51:24.386Z,20.28
2022-08-27T21:54:36.523Z,20.27
2022-08-27T21:57:47.879Z,20.22
2022-08-27T22:00:57.443Z,20.15
